Time;durP1;ratioP1;P1;durP2;ratioP2;P2;SDS_P1;SDS_P2;PMS_P1;PMS_P2;Temp;Humidity;BMP_temperature;BMP_pressure;BME280_temperature;BME280_humidity;BME280_pressure;Samples;Min_cycle;Max_cycle;Signal;HPM_P1;HPM_P2
2024/01/27 00:00:07;;;;;;;18.43;17.63;;;5.40;99.90;;;;;;5071687;28;20286;-67
2024/01/27 00:02:33;;;;;;;18.43;17.73;;;5.40;99.90;;;;;;5071771;28;20195;-66
2024/01/27 00:05:00;;;;;;;17.43;16.83;;;5.30;99.90;;;;;;5072631;28;20199;-67
2024/01/27 00:07:28;;;;;;;16.40;15.80;;;5.30;99.90;;;;;;5071080;28;20600;-66
2024/01/27 00:09:56;;;;;;;17.47;16.77;;;5.30;99.90;;;;;;5070623;28;20223;-68
2024/01/27 00:12:23;;;;;;;17.57;16.87;;;5.20;99.90;;;;;;5075387;28;20226;-66
2024/01/27 00:14:50;;;;;;;15.50;14.90;;;5.20;99.90;;;;;;5074808;28;20283;-66
2024/01/27 00:17:17;;;;;;;16.67;15.97;;;5.10;99.90;;;;;;5075304;28;20314;-67
2024/01/27 00:19:43;;;;;;;15.27;14.67;;;5.00;99.90;;;;;;5072594;28;20312;-68
2024/01/27 00:22:10;;;;;;;14.93;14.33;;;4.90;99.90;;;;;;5072270;28;20211;-64
2024/01/27 00:24:37;;;;;;;14.73;14.23;;;5.00;99.90;;;;;;5083432;28;20195;-66
2024/01/27 00:27:05;;;;;;;15.20;14.60;;;4.90;99.90;;;;;;5084000;28;20751;-65
2024/01/27 00:29:32;;;;;;;15.40;14.80;;;4.80;99.90;;;;;;5084312;28;20203;-67
2024/01/27 00:31:58;;;;;;;15.47;14.87;;;4.80;99.90;;;;;;5083126;28;20211;-65
2024/01/27 00:34:25;;;;;;;15.63;15.03;;;4.80;99.90;;;;;;5081638;28;20218;-66
2024/01/27 00:36:52;;;;;;;15.70;15.10;;;4.70;99.90;;;;;;5081893;28;20227;-65
2024/01/27 00:39:19;;;;;;;17.37;16.67;;;4.60;99.90;;;;;;5080645;28;20211;-66
2024/01/27 00:41:46;;;;;;;15.63;15.03;;;4.60;99.90;;;;;;5071750;28;20195;-68
2024/01/27 00:44:14;;;;;;;17.23;16.53;;;4.60;99.90;;;;;;5071359;28;20516;-67
2024/01/27 00:46:40;;;;;;;15.07;14.50;;;4.60;99.90;;;;;;5071585;28;20231;-65
2024/01/27 00:49:07;;;;;;;14.67;14.10;;;4.60;99.90;;;;;;5070529;28;20203;-66
2024/01/27 00:51:34;;;;;;;14.73;14.13;;;4.60;99.90;;;;;;5067701;28;20210;-67
2024/01/27 00:54:01;;;;;;;15.00;14.43;;;4.60;99.90;;;;;;5071864;28;20227;-65
2024/01/27 00:56:28;;;;;;;15.60;15.00;;;4.60;99.90;;;;;;5071177;28;20231;-67
2024/01/27 00:58:54;;;;;;;15.03;14.47;;;4.50;99.90;;;;;;5071349;28;20217;-68
2024/01/27 01:01:22;;;;;;;15.77;15.17;;;4.40;99.90;;;;;;5070153;28;20206;-65
2024/01/27 01:03:49;;;;;;;14.70;14.20;;;4.40;99.90;;;;;;5072156;28;20662;-65
2024/01/27 01:06:16;;;;;;;15.27;14.67;;;4.40;99.90;;;;;;5076652;28;20222;-66
2024/01/27 01:08:42;;;;;;;15.53;14.93;;;4.40;99.90;;;;;;5079027;28;20204;-68
2024/01/27 01:11:09;;;;;;;15.47;14.87;;;4.40;99.90;;;;;;5076513;28;20199;-66
2024/01/27 01:13:36;;;;;;;15.10;14.50;;;4.40;99.90;;;;;;5077376;28;20229;-67
2024/01/27 01:16:03;;;;;;;17.07;16.47;;;4.40;99.90;;;;;;5079787;28;20223;-68
2024/01/27 01:18:31;;;;;;;18.67;17.97;;;4.40;99.90;;;;;;5077417;28;20211;-65
2024/01/27 01:20:58;;;;;;;18.30;17.60;;;4.40;99.90;;;;;;5071451;28;20211;-66
2024/01/27 01:23:25;;;;;;;17.10;16.40;;;4.40;99.90;;;;;;5071675;28;20203;-68
2024/01/27 01:25:51;;;;;;;16.77;16.17;;;4.50;99.90;;;;;;5072827;28;20219;-67
2024/01/27 01:28:18;;;;;;;17.33;16.63;;;4.40;99.90;;;;;;5072569;28;20572;-66
2024/01/27 01:30:45;;;;;;;17.17;16.47;;;4.40;99.90;;;;;;5077502;28;20272;-66
2024/01/27 01:33:12;;;;;;;16.40;15.80;;;4.40;99.90;;;;;;5083612;28;20325;-66
2024/01/27 01:35:40;;;;;;;15.37;14.77;;;4.30;99.90;;;;;;5081549;28;20219;-66
2024/01/27 01:38:07;;;;;;;16.20;15.60;;;4.30;99.90;;;;;;5074275;28;20290;-66
2024/01/27 01:40:34;;;;;;;15.87;15.27;;;4.30;99.90;;;;;;5069992;28;20221;-66
2024/01/27 01:43:00;;;;;;;16.23;15.53;;;4.20;99.90;;;;;;5071067;28;20574;-67
2024/01/27 01:45:27;;;;;;;15.43;14.83;;;4.20;99.90;;;;;;5071160;28;20211;-68
2024/01/27 01:47:54;;;;;;;15.87;15.23;;;4.10;99.90;;;;;;5070207;28;20238;-65
2024/01/27 01:50:21;;;;;;;17.57;16.87;;;4.10;99.90;;;;;;5069762;28;20226;-67
2024/01/27 01:52:50;;;;;;;16.80;16.20;;;4.10;99.90;;;;;;5069997;28;20669;-67
2024/01/27 01:55:17;;;;;;;17.30;16.60;;;4.10;99.90;;;;;;5070401;28;20680;-67
2024/01/27 01:57:44;;;;;;;14.60;14.10;;;4.00;99.90;;;;;;5066071;28;20219;-67
2024/01/27 02:00:13;;;;;;;17.87;17.07;;;4.00;99.90;;;;;;5069740;28;20210;-69
2024/01/27 02:02:40;;;;;;;15.47;14.87;;;4.00;99.90;;;;;;5070402;28;20214;-67
2024/01/27 02:05:09;;;;;;;14.53;13.93;;;4.00;99.90;;;;;;5070334;28;20207;-67
2024/01/27 02:07:36;;;;;;;14.90;14.30;;;4.00;99.90;;;;;;5070276;28;20288;-68
2024/01/27 02:10:06;;;;;;;18.27;17.48;;;4.00;99.90;;;;;;5069751;28;20199;-67
2024/01/27 02:12:33;;;;;;;15.43;14.83;;;3.90;99.90;;;;;;5070506;28;20203;-65
2024/01/27 02:15:00;;;;;;;16.93;16.30;;;4.00;99.90;;;;;;5068125;28;20228;-68
2024/01/27 02:17:26;;;;;;;16.92;16.33;;;3.90;99.90;;;;;;5070551;28;20269;-66
2024/01/27 02:19:53;;;;;;;17.63;16.93;;;3.90;99.90;;;;;;5071157;28;20207;-66
2024/01/27 02:22:20;;;;;;;16.17;15.57;;;3.90;99.90;;;;;;5076151;28;20203;-65
2024/01/27 02:24:48;;;;;;;14.87;14.27;;;3.90;99.90;;;;;;5077264;28;20200;-66
2024/01/27 02:27:15;;;;;;;14.20;13.60;;;3.90;99.90;;;;;;5077285;28;20610;-66
2024/01/27 02:29:41;;;;;;;16.83;16.23;;;3.80;99.90;;;;;;5078156;28;20199;-67
2024/01/27 02:32:09;;;;;;;15.73;15.13;;;3.80;99.90;;;;;;5074322;28;20203;-68
2024/01/27 02:34:36;;;;;;;15.37;14.77;;;3.70;99.90;;;;;;5073583;28;20227;-67
2024/01/27 02:37:03;;;;;;;16.27;15.67;;;3.70;99.90;;;;;;5073749;28;20234;-68
2024/01/27 02:39:29;;;;;;;17.73;17.03;;;3.80;99.90;;;;;;5073412;28;20219;-66
2024/01/27 02:41:58;;;;;;;16.27;15.67;;;3.80;99.90;;;;;;5070471;28;20318;-68
2024/01/27 02:44:25;;;;;;;15.20;14.60;;;3.80;99.90;;;;;;5070340;28;20203;-68
2024/01/27 02:46:52;;;;;;;14.27;13.70;;;3.70;99.90;;;;;;5071465;28;20290;-67
2024/01/27 02:49:19;;;;;;;15.80;15.20;;;3.70;99.90;;;;;;5071780;28;20204;-66
2024/01/27 02:51:45;;;;;;;17.03;16.33;;;3.60;99.90;;;;;;5072927;28;20199;-68
2024/01/27 02:54:12;;;;;;;16.10;15.50;;;3.70;99.90;;;;;;5073161;28;20223;-65
2024/01/27 02:56:39;;;;;;;14.23;13.63;;;3.70;99.90;;;;;;5074554;28;20226;-69
2024/01/27 02:59:07;;;;;;;16.70;16.07;;;3.70;99.90;;;;;;5076641;28;20211;-64
2024/01/27 03:01:34;;;;;;;15.03;14.43;;;3.70;99.90;;;;;;5073250;28;20573;-66
2024/01/27 03:04:00;;;;;;;15.47;14.87;;;3.60;99.90;;;;;;5072502;28;20199;-66
2024/01/27 03:06:27;;;;;;;15.40;14.80;;;3.60;99.90;;;;;;5072788;28;20222;-66
2024/01/27 03:08:54;;;;;;;16.37;15.73;;;3.60;99.90;;;;;;5072638;28;20203;-67
2024/01/27 03:11:21;;;;;;;18.13;17.43;;;3.60;99.90;;;;;;5071105;28;20211;-68
2024/01/27 03:13:48;;;;;;;16.90;16.20;;;3.50;99.90;;;;;;5072131;28;20272;-65
2024/01/27 03:16:17;;;;;;;14.40;13.70;;;3.60;99.90;;;;;;5072051;28;20226;-65
2024/01/27 03:18:44;;;;;;;15.73;15.13;;;3.60;99.90;;;;;;5072649;28;20579;-65
2024/01/27 03:21:10;;;;;;;16.70;16.03;;;3.50;99.90;;;;;;5070346;28;20218;-66
2024/01/27 03:23:37;;;;;;;16.15;15.48;;;3.50;99.90;;;;;;5071930;28;20195;-66
2024/01/27 03:26:05;;;;;;;15.07;14.47;;;3.40;99.90;;;;;;5072012;28;20611;-65
2024/01/27 03:28:31;;;;;;;15.93;15.23;;;3.30;99.90;;;;;;5071645;28;20290;-66
2024/01/27 03:30:59;;;;;;;17.37;16.67;;;3.30;99.90;;;;;;5070604;28;20207;-66
2024/01/27 03:33:29;;;;;;;18.27;17.47;;;3.20;99.90;;;;;;5071143;28;20202;-67
2024/01/27 03:35:56;;;;;;;15.93;15.33;;;3.20;99.90;;;;;;5066410;28;20227;-67
2024/01/27 03:38:22;;;;;;;16.87;16.17;;;3.20;99.90;;;;;;5071747;28;20203;-66
2024/01/27 03:40:49;;;;;;;17.80;17.10;;;3.20;99.90;;;;;;5071699;28;20215;-67
2024/01/27 03:43:16;;;;;;;18.00;17.30;;;3.20;99.90;;;;;;5072244;28;20203;-67
2024/01/27 03:45:42;;;;;;;18.93;18.13;;;3.20;99.90;;;;;;5072224;28;20200;-66
2024/01/27 03:48:09;;;;;;;19.23;18.50;;;3.20;99.90;;;;;;5072296;28;20211;-66
2024/01/27 03:50:37;;;;;;;17.60;16.90;;;3.20;99.90;;;;;;5071888;28;20207;-67
2024/01/27 03:53:04;;;;;;;17.70;17.00;;;3.30;99.90;;;;;;5073508;28;20203;-67
2024/01/27 03:55:32;;;;;;;16.67;15.97;;;3.30;99.90;;;;;;5072267;28;20665;-66
2024/01/27 03:57:58;;;;;;;15.87;15.27;;;3.30;99.90;;;;;;5072130;28;20923;-66
2024/01/27 04:00:25;;;;;;;17.10;16.40;;;3.30;99.90;;;;;;5070596;28;20210;-65
2024/01/27 04:02:52;;;;;;;16.48;15.85;;;3.30;99.90;;;;;;5071740;28;20290;-67
2024/01/27 04:05:19;;;;;;;17.33;16.63;;;3.20;99.90;;;;;;5071770;28;20218;-65
2024/01/27 04:07:47;;;;;;;15.10;14.50;;;3.20;99.90;;;;;;5071260;28;20219;-66
2024/01/27 04:10:14;;;;;;;19.33;18.53;;;3.20;99.90;;;;;;5069808;28;20207;-66
2024/01/27 04:12:41;;;;;;;17.50;16.80;;;3.10;99.90;;;;;;5072895;28;20203;-68
2024/01/27 04:15:08;;;;;;;17.63;16.93;;;3.10;99.90;;;;;;5074787;28;20241;-65
2024/01/27 04:17:35;;;;;;;17.97;17.27;;;3.00;99.90;;;;;;5075638;28;20223;-66
2024/01/27 04:20:01;;;;;;;18.80;18.03;;;3.00;99.90;;;;;;5071496;28;20218;-66
2024/01/27 04:22:28;;;;;;;18.23;17.53;;;3.00;99.90;;;;;;5074021;28;20203;-66
2024/01/27 04:24:56;;;;;;;17.75;17.15;;;3.00;99.90;;;;;;5068835;28;20846;-66
2024/01/27 04:27:23;;;;;;;17.20;16.50;;;3.00;99.90;;;;;;5069187;28;20236;-68
2024/01/27 04:29:50;;;;;;;17.57;16.87;;;3.00;99.90;;;;;;5071678;28;20204;-68
2024/01/27 04:32:16;;;;;;;18.67;17.97;;;3.00;99.90;;;;;;5072359;28;20215;-65
2024/01/27 04:34:43;;;;;;;17.73;17.13;;;3.00;99.90;;;;;;5070464;28;20302;-68
2024/01/27 04:37:10;;;;;;;17.63;16.93;;;3.10;99.90;;;;;;5071114;28;20238;-66
2024/01/27 04:39:38;;;;;;;18.97;18.17;;;3.10;99.90;;;;;;5070716;28;20681;-67
2024/01/27 04:42:06;;;;;;;18.23;17.43;;;3.10;99.90;;;;;;5067728;28;20200;-68
2024/01/27 04:44:33;;;;;;;17.63;16.93;;;3.00;99.90;;;;;;5070995;28;20200;-68
2024/01/27 04:47:00;;;;;;;17.57;16.87;;;2.80;99.90;;;;;;5071865;28;20236;-66
2024/01/27 04:49:27;;;;;;;18.40;17.70;;;2.90;99.90;;;;;;5071798;28;20214;-67
2024/01/27 04:51:53;;;;;;;18.08;17.35;;;2.90;99.90;;;;;;5069849;28;20687;-67
2024/01/27 04:54:20;;;;;;;17.67;16.97;;;2.90;99.90;;;;;;5086024;28;20286;-66
2024/01/27 04:56:47;;;;;;;19.40;18.57;;;2.80;99.90;;;;;;5081625;28;20219;-66
2024/01/27 04:59:15;;;;;;;18.33;17.63;;;2.80;99.90;;;;;;5074197;28;20664;-67
2024/01/27 05:01:45;;;;;;;17.60;16.90;;;2.80;99.90;;;;;;5071288;28;20557;-66
2024/01/27 05:04:11;;;;;;;18.47;17.67;;;2.80;99.90;;;;;;5070794;28;20202;-66
2024/01/27 05:06:39;;;;;;;16.92;16.33;;;2.70;99.90;;;;;;5071080;28;20238;-67
2024/01/27 05:09:06;;;;;;;17.87;17.17;;;2.70;99.90;;;;;;5069449;28;20260;-67
2024/01/27 05:11:33;;;;;;;17.70;17.00;;;2.70;99.90;;;;;;5070121;28;20215;-68
2024/01/27 05:14:00;;;;;;;17.50;16.80;;;2.70;99.90;;;;;;5071592;28;20207;-67
2024/01/27 05:16:29;;;;;;;18.40;17.60;;;2.70;99.90;;;;;;5071452;28;20226;-67
2024/01/27 05:18:55;;;;;;;17.17;16.48;;;2.70;99.90;;;;;;5069088;28;20253;-66
2024/01/27 05:21:22;;;;;;;17.08;16.38;;;2.80;99.90;;;;;;5071037;28;20770;-67
2024/01/27 05:23:49;;;;;;;16.75;16.15;;;2.80;99.90;;;;;;5071683;28;20215;-66
2024/01/27 05:26:16;;;;;;;17.97;17.27;;;2.80;99.90;;;;;;5070077;28;20720;-68
2024/01/27 05:28:42;;;;;;;16.60;15.90;;;2.80;99.90;;;;;;5070587;28;20199;-67
2024/01/27 05:31:09;;;;;;;18.17;17.47;;;2.70;99.90;;;;;;5071596;28;20210;-67
2024/01/27 05:33:39;;;;;;;17.52;16.83;;;2.70;99.90;;;;;;5071275;28;20195;-66
2024/01/27 05:36:06;;;;;;;16.53;15.83;;;2.70;99.90;;;;;;5070840;28;20251;-68
2024/01/27 05:38:33;;;;;;;16.77;16.07;;;2.60;99.90;;;;;;5071991;28;20204;-67
2024/01/27 05:41:01;;;;;;;15.60;15.00;;;2.50;99.90;;;;;;5078105;28;20645;-67
2024/01/27 05:43:28;;;;;;;17.40;16.70;;;2.50;99.90;;;;;;5079608;28;20203;-67
2024/01/27 05:45:55;;;;;;;18.23;17.53;;;2.40;99.90;;;;;;5075725;28;20658;-66
2024/01/27 05:48:22;;;;;;;17.73;17.03;;;2.40;99.90;;;;;;5076586;28;20199;-66
2024/01/27 05:50:58;;;;;;;18.70;18.00;;;2.40;99.90;;;;;;5072376;28;20206;-66
2024/01/27 05:53:25;;;;;;;19.20;18.40;;;2.50;99.90;;;;;;5070655;28;20206;-68
2024/01/27 05:55:52;;;;;;;18.90;18.20;;;2.50;99.90;;;;;;5074210;28;20223;-67
2024/01/27 05:58:21;;;;;;;17.10;16.50;;;2.50;99.90;;;;;;5074433;28;20681;-65
2024/01/27 06:00:47;;;;;;;17.73;17.03;;;2.50;99.90;;;;;;5073501;28;20206;-66
2024/01/27 06:03:14;;;;;;;17.73;17.03;;;2.50;99.90;;;;;;5074337;28;20203;-67
2024/01/27 06:05:42;;;;;;;16.83;16.13;;;2.50;99.90;;;;;;5073633;28;20226;-68
2024/01/27 06:08:10;;;;;;;17.58;16.88;;;2.50;99.90;;;;;;5074956;28;20268;-68
2024/01/27 06:10:37;;;;;;;16.47;15.77;;;2.50;99.90;;;;;;5073377;28;20203;-67
2024/01/27 06:13:04;;;;;;;16.90;16.20;;;2.50;99.90;;;;;;5073648;28;20731;-66
2024/01/27 06:15:31;;;;;;;17.17;16.47;;;2.50;99.90;;;;;;5073188;28;20234;-67
2024/01/27 06:17:58;;;;;;;17.30;16.50;;;2.50;99.90;;;;;;5073528;28;20230;-66
2024/01/27 06:20:25;;;;;;;18.97;18.23;;;2.50;99.90;;;;;;5073082;28;20207;-68
2024/01/27 06:22:53;;;;;;;18.67;17.97;;;2.40;99.90;;;;;;5073711;28;20268;-65
2024/01/27 06:25:21;;;;;;;18.17;17.47;;;2.40;99.90;;;;;;5073712;28;20211;-66
2024/01/27 06:27:48;;;;;;;17.93;17.23;;;2.40;99.90;;;;;;5073042;28;20774;-68
2024/01/27 06:30:16;;;;;;;19.97;19.07;;;2.40;99.90;;;;;;5072973;28;20207;-67
2024/01/27 06:32:43;;;;;;;16.30;15.67;;;2.40;99.90;;;;;;5073747;28;20257;-67
2024/01/27 06:35:10;;;;;;;19.07;18.37;;;2.40;99.90;;;;;;5073069;28;20219;-68
2024/01/27 06:37:37;;;;;;;18.43;17.73;;;2.40;99.90;;;;;;5072551;28;20230;-67
2024/01/27 06:40:04;;;;;;;20.00;19.10;;;2.40;99.90;;;;;;5071924;28;20199;-68
2024/01/27 06:42:32;;;;;;;18.10;17.40;;;2.40;99.90;;;;;;5072090;28;20215;-66
2024/01/27 06:44:59;;;;;;;16.73;16.03;;;2.40;99.90;;;;;;5072335;28;20203;-65
2024/01/27 06:47:26;;;;;;;17.43;16.73;;;2.40;99.90;;;;;;5072456;28;20227;-64
2024/01/27 06:49:52;;;;;;;16.93;16.33;;;2.40;99.90;;;;;;5071543;28;20215;-64
2024/01/27 06:52:19;;;;;;;16.38;15.77;;;2.40;99.90;;;;;;5071751;28;20207;-66
2024/01/27 06:54:46;;;;;;;15.57;14.97;;;2.50;99.90;;;;;;5072626;28;20219;-66
2024/01/27 06:57:20;;;;;;;16.23;15.63;;;2.50;99.90;;;;;;5073244;28;20238;-65
2024/01/27 06:59:52;;;;;;;16.10;15.50;;;2.40;99.90;;;;;;5074662;28;20203;-65
2024/01/27 07:02:19;;;;;;;18.08;17.38;;;2.30;99.90;;;;;;5073769;28;20858;-66
2024/01/27 07:04:46;;;;;;;15.30;14.70;;;2.20;99.90;;;;;;5074272;28;20199;-67
2024/01/27 07:07:13;;;;;;;17.40;16.70;;;2.10;99.90;;;;;;5073745;28;20718;-66
2024/01/27 07:09:40;;;;;;;15.65;15.00;;;2.10;99.90;;;;;;5073354;28;20196;-65
2024/01/27 07:12:08;;;;;;;19.00;18.20;;;2.10;99.90;;;;;;5072136;28;20564;-65
2024/01/27 07:14:35;;;;;;;18.10;17.33;;;2.10;99.90;;;;;;5073014;28;20215;-66
2024/01/27 07:17:04;;;;;;;16.93;16.23;;;2.10;99.90;;;;;;5073934;28;20238;-66
2024/01/27 07:19:31;;;;;;;19.40;18.60;;;2.10;99.90;;;;;;5071470;28;20207;-68
2024/01/27 07:21:58;;;;;;;18.83;18.13;;;2.10;99.90;;;;;;5073007;28;20207;-68
2024/01/27 07:24:25;;;;;;;19.50;18.63;;;2.10;99.90;;;;;;5072769;28;20206;-67
2024/01/27 07:26:51;;;;;;;18.93;18.13;;;2.10;99.90;;;;;;5080713;28;20226;-67
2024/01/27 07:29:19;;;;;;;18.30;17.50;;;2.20;99.90;;;;;;5074272;28;20222;-66
2024/01/27 07:31:46;;;;;;;16.97;16.27;;;2.20;99.90;;;;;;5073581;28;20273;-66
2024/01/27 07:34:14;;;;;;;16.23;15.53;;;2.20;99.90;;;;;;5073740;28;20214;-68
2024/01/27 07:36:41;;;;;;;18.50;17.80;;;2.20;99.90;;;;;;5073224;28;20223;-67
2024/01/27 07:39:08;;;;;;;18.33;17.63;;;2.20;99.90;;;;;;5073386;28;20207;-65
2024/01/27 07:41:35;;;;;;;18.80;18.03;;;2.30;99.90;;;;;;5071638;28;20222;-67
2024/01/27 07:44:09;;;;;;;18.73;18.03;;;2.30;99.90;;;;;;5073479;28;20214;-67
2024/01/27 07:46:35;;;;;;;18.77;17.97;;;2.20;99.90;;;;;;5072817;28;20223;-67
2024/01/27 07:49:03;;;;;;;17.67;16.97;;;2.20;99.90;;;;;;5073073;28;20214;-65
2024/01/27 07:51:31;;;;;;;16.47;15.77;;;2.20;99.90;;;;;;5071877;28;20203;-67
2024/01/27 07:53:59;;;;;;;17.83;17.03;;;2.10;99.90;;;;;;5073219;28;20208;-68
2024/01/27 07:56:25;;;;;;;19.53;18.73;;;2.10;99.90;;;;;;5073504;28;20231;-66
2024/01/27 07:58:52;;;;;;;18.37;17.53;;;2.10;99.90;;;;;;5072380;28;20210;-66
2024/01/27 08:01:19;;;;;;;18.30;17.60;;;2.10;99.90;;;;;;5070586;28;20215;-66
2024/01/27 08:03:46;;;;;;;17.97;17.17;;;2.20;99.90;;;;;;5072006;28;20213;-66
2024/01/27 08:06:16;;;;;;;15.97;15.27;;;2.30;99.90;;;;;;5071573;28;20838;-65
2024/01/27 08:08:45;;;;;;;17.90;17.10;;;2.40;99.90;;;;;;5072841;28;20203;-65
2024/01/27 08:11:12;;;;;;;16.83;16.20;;;2.50;99.90;;;;;;5072710;28;20583;-66
2024/01/27 08:13:39;;;;;;;17.47;16.77;;;2.50;99.90;;;;;;5073183;28;20214;-66
2024/01/27 08:16:06;;;;;;;16.67;16.07;;;2.60;99.90;;;;;;5074198;28;20231;-66
2024/01/27 08:18:32;;;;;;;16.23;15.57;;;2.70;99.90;;;;;;5072555;28;20207;-67
2024/01/27 08:20:59;;;;;;;15.50;14.80;;;2.80;99.90;;;;;;5080976;28;20211;-65
2024/01/27 08:23:26;;;;;;;16.57;15.97;;;2.80;99.90;;;;;;5084390;28;20234;-65
2024/01/27 08:25:54;;;;;;;14.97;14.37;;;3.00;99.90;;;;;;5078807;28;20212;-67
2024/01/27 08:28:21;;;;;;;15.80;15.20;;;3.10;99.90;;;;;;5072079;28;20218;-66
2024/01/27 08:30:47;;;;;;;15.40;14.70;;;3.30;99.90;;;;;;5070646;28;20202;-67
2024/01/27 08:33:14;;;;;;;12.87;12.37;;;3.40;99.90;;;;;;5072750;28;20207;-66
2024/01/27 08:35:41;;;;;;;12.67;12.17;;;3.60;99.90;;;;;;5070584;28;20749;-66
2024/01/27 08:38:09;;;;;;;12.57;12.07;;;3.70;99.90;;;;;;5077498;28;20218;-66
2024/01/27 08:40:36;;;;;;;12.13;11.63;;;3.80;99.90;;;;;;5082893;28;20199;-68
2024/01/27 08:43:05;;;;;;;12.53;12.03;;;3.90;99.90;;;;;;5079709;28;20736;-69
2024/01/27 08:45:32;;;;;;;12.07;11.57;;;4.10;99.90;;;;;;5074257;28;20661;-68
2024/01/27 08:48:00;;;;;;;12.43;11.93;;;4.20;99.90;;;;;;5075251;28;20223;-66
2024/01/27 08:50:27;;;;;;;11.30;10.90;;;4.40;99.90;;;;;;5084549;28;20226;-64
2024/01/27 08:52:53;;;;;;;12.00;11.50;;;4.60;99.90;;;;;;5084457;28;20200;-67
2024/01/27 08:55:23;;;;;;;11.93;11.43;;;4.80;99.90;;;;;;5072874;28;20223;-66
2024/01/27 08:57:50;;;;;;;11.97;11.50;;;5.00;99.90;;;;;;5071957;28;20231;-67
2024/01/27 09:00:18;;;;;;;13.23;12.63;;;5.10;99.90;;;;;;5073521;28;20234;-64
2024/01/27 09:02:45;;;;;;;12.77;12.20;;;5.20;99.90;;;;;;5071346;28;20218;-64
2024/01/27 09:05:12;;;;;;;11.40;11.00;;;5.40;99.90;;;;;;5070772;28;20207;-65
2024/01/27 09:07:39;;;;;;;12.40;11.90;;;5.50;99.90;;;;;;5072468;28;20307;-65
2024/01/27 09:10:07;;;;;;;12.07;11.57;;;5.50;99.90;;;;;;5072090;28;20692;-65
2024/01/27 09:12:34;;;;;;;11.07;10.67;;;5.60;99.90;;;;;;5078331;28;20292;-65
2024/01/27 09:15:01;;;;;;;11.73;11.33;;;5.70;99.90;;;;;;5080287;28;20218;-66
2024/01/27 09:17:29;;;;;;;11.80;11.30;;;5.80;99.90;;;;;;5080854;28;20234;-65
2024/01/27 09:19:55;;;;;;;11.87;11.47;;;5.80;99.90;;;;;;5084272;28;20206;-68
2024/01/27 09:22:22;;;;;;;12.27;11.77;;;5.90;99.90;;;;;;5078979;28;20207;-67
2024/01/27 09:24:49;;;;;;;12.00;11.60;;;6.00;99.90;;;;;;5077338;28;20199;-65
2024/01/27 09:27:16;;;;;;;12.03;11.63;;;6.10;99.90;;;;;;5075936;28;20337;-65
2024/01/27 09:29:43;;;;;;;12.57;12.07;;;6.10;99.90;;;;;;5075320;28;20203;-67
2024/01/27 09:32:11;;;;;;;11.97;11.57;;;6.30;99.90;;;;;;5073816;28;20199;-65
2024/01/27 09:34:39;;;;;;;11.83;11.43;;;6.50;99.90;;;;;;5069955;28;20207;-65
2024/01/27 09:37:05;;;;;;;12.20;11.80;;;6.60;99.90;;;;;;5071125;28;20242;-67
2024/01/27 09:39:32;;;;;;;12.33;11.83;;;6.70;99.90;;;;;;5076992;28;20207;-62
2024/01/27 09:42:01;;;;;;;11.43;11.03;;;6.80;99.90;;;;;;5077498;28;20206;-67
2024/01/27 09:44:29;;;;;;;12.10;11.60;;;6.90;99.90;;;;;;5074878;28;20208;-66
2024/01/27 09:46:56;;;;;;;11.43;11.03;;;7.10;99.90;;;;;;5070459;28;20759;-67
2024/01/27 09:49:23;;;;;;;11.63;11.23;;;7.30;99.90;;;;;;5068620;28;20206;-67
2024/01/27 09:51:51;;;;;;;11.37;10.97;;;7.40;99.90;;;;;;5070208;28;20329;-67
2024/01/27 09:54:19;;;;;;;11.57;11.17;;;7.50;99.90;;;;;;5071773;28;20685;-65
2024/01/27 09:56:47;;;;;;;12.60;12.07;;;7.60;99.90;;;;;;5070056;28;20603;-68
2024/01/27 09:59:15;;;;;;;12.07;11.57;;;7.70;99.90;;;;;;5066628;28;20681;-68
2024/01/27 10:01:42;;;;;;;11.30;10.90;;;7.80;99.90;;;;;;5069740;28;20283;-66
2024/01/27 10:04:10;;;;;;;11.43;11.03;;;7.80;99.90;;;;;;5070361;28;20203;-66
2024/01/27 10:06:36;;;;;;;11.70;11.30;;;7.80;99.90;;;;;;5070130;28;20222;-68
2024/01/27 10:09:04;;;;;;;11.53;11.13;;;7.90;99.90;;;;;;5069835;28;20207;-67
2024/01/27 10:11:34;;;;;;;11.13;10.73;;;7.90;99.90;;;;;;5069530;28;20223;-67
2024/01/27 10:14:01;;;;;;;11.50;11.10;;;8.00;99.90;;;;;;5068162;28;20204;-67
2024/01/27 10:16:28;;;;;;;11.70;11.30;;;8.10;99.90;;;;;;5070641;28;20223;-67
2024/01/27 10:19:01;;;;;;;11.50;11.00;;;8.20;99.90;;;;;;5071716;28;20207;-65
2024/01/27 10:21:28;;;;;;;11.00;10.60;;;8.30;99.90;;;;;;5070989;28;20207;-68
2024/01/27 10:23:55;;;;;;;11.13;10.73;;;8.40;99.90;;;;;;5071572;28;20207;-66
2024/01/27 10:26:23;;;;;;;11.70;11.30;;;8.30;99.90;;;;;;5071871;28;20253;-67
2024/01/27 10:28:57;;;;;;;11.47;11.07;;;8.10;99.90;;;;;;5071427;28;20214;-67
2024/01/27 10:31:27;;;;;;;11.47;11.07;;;8.00;99.90;;;;;;5068055;28;20208;-67
2024/01/27 10:33:55;;;;;;;11.40;11.00;;;8.10;99.90;;;;;;5069747;28;20211;-68
2024/01/27 10:36:21;;;;;;;12.03;11.50;;;8.10;99.90;;;;;;5069715;28;20220;-67
2024/01/27 10:38:48;;;;;;;11.60;11.10;;;8.20;99.90;;;;;;5070714;28;20215;-67
2024/01/27 10:41:23;;;;;;;11.73;11.33;;;8.30;99.90;;;;;;5071699;28;20230;-66
2024/01/27 10:43:52;;;;;;;11.60;11.20;;;8.20;99.90;;;;;;5074580;28;20206;-66
2024/01/27 10:46:20;;;;;;;11.93;11.43;;;8.10;99.90;;;;;;5081994;28;20231;-66
2024/01/27 10:48:50;;;;;;;12.53;12.03;;;8.10;99.90;;;;;;5083097;28;20337;-66
2024/01/27 10:51:23;;;;;;;12.40;11.90;;;8.00;99.90;;;;;;5081907;28;20207;-66
2024/01/27 10:53:52;;;;;;;12.17;11.67;;;8.00;99.90;;;;;;5080190;28;21302;-66
2024/01/27 10:56:20;;;;;;;11.77;11.37;;;8.00;99.90;;;;;;5082233;28;20234;-66
2024/01/27 10:58:49;;;;;;;11.90;11.40;;;8.20;99.90;;;;;;5074016;28;20222;-67
2024/01/27 11:01:19;;;;;;;11.77;11.37;;;8.30;99.90;;;;;;5072246;28;20207;-66
2024/01/27 11:03:48;;;;;;;12.17;11.67;;;8.30;99.90;;;;;;5072925;28;20210;-65
2024/01/27 11:06:15;;;;;;;12.13;11.63;;;8.30;99.90;;;;;;5072390;28;20226;-65
2024/01/27 11:08:42;;;;;;;12.00;11.50;;;8.20;99.90;;;;;;5072501;28;20649;-67
2024/01/27 11:11:10;;;;;;;12.60;12.10;;;8.20;99.90;;;;;;5072190;28;20211;-68
2024/01/27 11:13:37;;;;;;;11.60;11.10;;;8.20;99.90;;;;;;5072067;28;20241;-67
2024/01/27 11:16:06;;;;;;;11.63;11.23;;;8.20;99.90;;;;;;5070186;28;20224;-67
2024/01/27 11:18:33;;;;;;;11.77;11.27;;;8.20;99.90;;;;;;5072611;28;20199;-68
2024/01/27 11:21:00;;;;;;;11.80;11.40;;;8.20;99.90;;;;;;5071658;28;20211;-67
2024/01/27 11:23:33;;;;;;;12.30;11.80;;;8.20;99.90;;;;;;5072223;28;20207;-66
2024/01/27 11:26:04;;;;;;;11.97;11.57;;;8.10;99.90;;;;;;5072460;28;20227;-67
2024/01/27 11:28:31;;;;;;;12.40;11.90;;;8.10;99.90;;;;;;5072838;28;21448;-67
2024/01/27 11:30:57;;;;;;;11.47;10.97;;;8.20;99.90;;;;;;5072521;28;20207;-67
2024/01/27 11:33:26;;;;;;;11.70;11.30;;;8.20;99.90;;;;;;5073186;28;20199;-67
2024/01/27 11:36:02;;;;;;;12.17;11.67;;;8.10;99.90;;;;;;5072090;28;20218;-67
2024/01/27 11:38:28;;;;;;;11.67;11.27;;;8.00;99.90;;;;;;5072526;28;20202;-66
2024/01/27 11:40:55;;;;;;;12.00;11.60;;;8.00;99.90;;;;;;5074757;28;20203;-67
2024/01/27 11:43:22;;;;;;;12.80;12.30;;;8.10;99.90;;;;;;5083228;28;20545;-68
2024/01/27 11:45:56;;;;;;;12.30;11.80;;;8.10;99.90;;;;;;5081268;28;20195;-67
2024/01/27 11:48:23;;;;;;;12.40;11.80;;;8.10;99.90;;;;;;5076901;28;20203;-67
2024/01/27 11:51:06;;;;;;;12.57;12.07;;;8.10;99.90;;;;;;5071695;28;20203;-67
2024/01/27 11:53:31;;;;;;;12.50;12.00;;;8.10;99.90;;;;;;5071703;28;20482;-68
2024/01/27 11:55:59;;;;;;;12.80;12.30;;;8.10;99.90;;;;;;5076188;28;20265;-66
2024/01/27 11:58:25;;;;;;;12.53;12.03;;;8.20;99.90;;;;;;5077262;28;20226;-70
2024/01/27 12:00:53;;;;;;;12.60;12.10;;;8.20;99.90;;;;;;5075932;28;20207;-68
2024/01/27 12:03:20;;;;;;;12.77;12.27;;;8.30;99.90;;;;;;5073870;28;20222;-66
2024/01/27 12:05:48;;;;;;;12.67;12.17;;;8.30;99.90;;;;;;5071263;28;20221;-65
2024/01/27 12:08:17;;;;;;;12.50;12.00;;;8.30;99.90;;;;;;5074223;28;20206;-65
2024/01/27 12:10:44;;;;;;;13.13;12.63;;;8.30;99.90;;;;;;5074543;28;20203;-65
2024/01/27 12:13:11;;;;;;;11.90;11.40;;;8.30;99.90;;;;;;5074184;28;20200;-67
2024/01/27 12:15:38;;;;;;;12.23;11.73;;;8.20;99.90;;;;;;5072492;28;20206;-67
2024/01/27 12:18:06;;;;;;;11.60;11.20;;;8.30;99.90;;;;;;5073143;28;20558;-67
2024/01/27 12:20:33;;;;;;;12.40;12.00;;;8.30;99.90;;;;;;5072864;28;20235;-66
2024/01/27 12:23:03;;;;;;;12.20;11.70;;;8.40;99.90;;;;;;5072650;28;20200;-67
2024/01/27 12:25:32;;;;;;;12.63;12.13;;;8.40;99.90;;;;;;5072548;28;20222;-67
2024/01/27 12:28:02;;;;;;;12.70;12.20;;;8.40;99.90;;;;;;5071506;28;20591;-65
2024/01/27 12:30:29;;;;;;;13.27;12.77;;;8.40;99.90;;;;;;5072545;28;20203;-67
2024/01/27 12:32:56;;;;;;;13.07;12.57;;;8.50;99.90;;;;;;5082465;28;20203;-66
2024/01/27 12:35:24;;;;;;;12.30;11.80;;;8.50;99.90;;;;;;5081714;28;20241;-65